Time;durP1;ratioP1;P1;durP2;ratioP2;P2;SDS_P1;SDS_P2;PMS_P1;PMS_P2;Temp;Humidity;BMP_temperature;BMP_pressure;BME280_temperature;BME280_humidity;BME280_pressure;Samples;Min_cycle;Max_cycle;Signal;HPM_P1;HPM_P2
2023/10/12 00:20:53;;;;;;;1999.90;999.90;;;;;;;;;;5010694;28;20584;-70
2023/10/12 00:23:37;;;;;;;1999.90;999.90;;;;;;;;;;5013672;28;20230;-70
2023/10/12 00:26:23;;;;;;;1999.90;999.90;;;;;;;;;;5013716;28;20231;-70
2023/10/12 00:29:08;;;;;;;1999.90;999.90;;;;;;;;;;5006656;28;20250;-69
2023/10/12 00:31:55;;;;;;;1999.90;999.90;;;;;;;;;;5013764;28;20210;-70
2023/10/12 00:34:46;;;;;;;1999.90;999.90;;;;;;;;;;5013864;28;20375;-70
2023/10/12 00:37:32;;;;;;;1999.90;999.90;;;;;;;;;;5012295;28;20402;-70
2023/10/12 00:40:25;;;;;;;1999.90;999.90;;;;;;;;;;5013607;28;20273;-70
2023/10/12 00:43:14;;;;;;;1999.90;999.90;;;;;;;;;;5013347;28;20723;-70
2023/10/12 00:46:00;;;;;;;1999.90;999.90;;;;;;;;;;5013233;28;20262;-69
2023/10/12 00:48:48;;;;;;;1999.90;999.90;;;;;;;;;;5021606;28;20233;-70
2023/10/12 00:51:34;;;;;;;1999.90;999.90;;;;;;;;;;5018403;28;20218;-70
2023/10/12 00:54:27;;;;;;;1999.90;999.90;;;;;;;;;;5013414;28;20734;-70
2023/10/12 00:57:12;;;;;;;1999.90;999.90;;;;;;;;;;5017166;28;20206;-69
2023/10/12 00:59:57;;;;;;;1999.90;999.90;;;;;;;;;;5014002;28;20231;-70
2023/10/12 01:02:42;;;;;;;1999.90;999.90;;;;;;;;;;5013209;28;20218;-70
2023/10/12 01:05:34;;;;;;;1999.90;999.90;;;;;;;;;;5012956;28;20610;-69
2023/10/12 01:08:20;;;;;;;1999.90;999.90;;;;;;;;;;5015870;28;20206;-70
2023/10/12 01:11:07;;;;;;;1999.90;999.90;;;;;;;;;;5013250;28;20233;-70
2023/10/12 01:14:05;;;;;;;1999.90;999.90;;;;;;;;;;5005541;28;20211;-70
2023/10/12 01:16:54;;;;;;;1999.90;999.90;;;;;;;;;;5020481;28;20214;-70
2023/10/12 01:19:45;;;;;;;1999.90;999.90;;;;;;;;;;5013130;28;20243;-70
2023/10/12 01:22:32;;;;;;;1999.90;999.90;;;;;;;;;;5015995;28;20580;-70
2023/10/12 01:25:21;;;;;;;1999.90;999.90;;;;;;;;;;4991594;28;20433;-70
2023/10/12 01:28:09;;;;;;;1999.90;999.90;;;;;;;;;;5017487;28;20222;-70
2023/10/12 01:30:54;;;;;;;1999.90;999.90;;;;;;;;;;5016949;28;20208;-70
2023/10/12 01:33:41;;;;;;;1999.90;999.90;;;;;;;;;;5024259;28;20578;-70
2023/10/12 01:36:30;;;;;;;1999.90;999.90;;;;;;;;;;5020097;28;20697;-70
2023/10/12 01:39:18;;;;;;;1999.90;999.90;;;;;;;;;;5017748;28;20225;-70
2023/10/12 01:42:05;;;;;;;1999.90;999.90;;;;;;;;;;5017310;28;20627;-70
2023/10/12 01:44:51;;;;;;;1999.90;999.90;;;;;;;;;;5018685;28;20230;-70
2023/10/12 01:47:37;;;;;;;1999.90;999.90;;;;;;;;;;5016302;28;20206;-70
2023/10/12 01:50:24;;;;;;;1999.90;999.90;;;;;;;;;;4991870;28;20448;-70
2023/10/12 01:53:25;;;;;;;1999.90;999.90;;;;;;;;;;5023653;28;20272;-70
2023/10/12 01:56:12;;;;;;;1999.90;999.90;;;;;;;;;;5016092;28;20213;-70
2023/10/12 01:58:57;;;;;;;1999.90;999.90;;;;;;;;;;5023896;28;20229;-69
2023/10/12 02:01:43;;;;;;;1999.90;999.90;;;;;;;;;;5014425;28;20318;-70
2023/10/12 02:04:28;;;;;;;1999.90;999.90;;;;;;;;;;5020219;28;20217;-70
2023/10/12 02:07:13;;;;;;;1999.90;999.90;;;;;;;;;;5018599;28;20793;-70
2023/10/12 02:09:59;;;;;;;1999.90;999.90;;;;;;;;;;5026622;28;20304;-69
2023/10/12 02:12:46;;;;;;;1999.90;999.90;;;;;;;;;;5010749;28;20282;-70
2023/10/12 02:15:32;;;;;;;1999.90;999.90;;;;;;;;;;5015002;28;20742;-69
2023/10/12 02:18:18;;;;;;;1999.90;999.90;;;;;;;;;;5012543;28;20581;-69
2023/10/12 02:21:11;;;;;;;1999.90;999.90;;;;;;;;;;5005717;28;20214;-70
2023/10/12 02:24:10;;;;;;;1999.90;999.90;;;;;;;;;;5009923;28;20260;-70
2023/10/12 02:26:55;;;;;;;1999.90;999.90;;;;;;;;;;5011063;28;20329;-70
2023/10/12 02:29:41;;;;;;;1999.90;999.90;;;;;;;;;;5025497;28;20248;-68
2023/10/12 02:32:26;;;;;;;1999.90;999.90;;;;;;;;;;5020155;28;20206;-70
2023/10/12 02:35:15;;;;;;;1999.90;999.90;;;;;;;;;;5011817;28;20288;-70
2023/10/12 02:38:00;;;;;;;1999.90;999.90;;;;;;;;;;5027176;28;20229;-69
2023/10/12 02:40:45;;;;;;;1999.90;999.90;;;;;;;;;;5029358;28;20957;-70
2023/10/12 02:43:32;;;;;;;1999.90;999.90;;;;;;;;;;5020701;28;20607;-69
2023/10/12 02:46:22;;;;;;;1999.90;999.90;;;;;;;;;;5003139;28;20642;-69
2023/10/12 02:49:09;;;;;;;1999.90;999.90;;;;;;;;;;5028423;28;20823;-68
2023/10/12 02:51:54;;;;;;;1999.90;999.90;;;;;;;;;;5012606;28;20211;-67
2023/10/12 02:54:49;;;;;;;1999.90;999.90;;;;;;;;;;5017162;28;20231;-68
2023/10/12 02:57:34;;;;;;;1999.90;999.90;;;;;;;;;;5017785;28;20201;-68
2023/10/12 03:00:21;;;;;;;1999.90;999.90;;;;;;;;;;5016834;28;20905;-68
2023/10/12 03:03:19;;;;;;;1999.90;999.90;;;;;;;;;;5026825;28;20403;-68
2023/10/12 03:06:08;;;;;;;1999.90;999.90;;;;;;;;;;5016809;28;20265;-68
2023/10/12 03:09:14;;;;;;;1999.90;999.90;;;;;;;;;;5029439;28;20237;-68
2023/10/12 03:11:59;;;;;;;1999.90;999.90;;;;;;;;;;5022204;28;20945;-69
2023/10/12 03:14:44;;;;;;;1999.90;999.90;;;;;;;;;;5031259;28;20222;-68
2023/10/12 03:17:29;;;;;;;1999.90;999.90;;;;;;;;;;5021824;28;20210;-68
2023/10/12 03:20:21;;;;;;;1999.90;999.90;;;;;;;;;;5023538;28;20240;-68
2023/10/12 03:23:14;;;;;;;1999.90;999.90;;;;;;;;;;5015741;28;20581;-68
2023/10/12 03:26:04;;;;;;;1999.90;999.90;;;;;;;;;;5013588;28;20216;-68
2023/10/12 03:28:50;;;;;;;1999.90;999.90;;;;;;;;;;5015005;28;20283;-68
2023/10/12 03:31:40;;;;;;;1999.90;999.90;;;;;;;;;;5023242;28;20202;-68
2023/10/12 03:34:36;;;;;;;1999.90;999.90;;;;;;;;;;5017388;28;20280;-68
2023/10/12 03:37:44;;;;;;;1999.90;999.90;;;;;;;;;;5026676;28;20221;-68
2023/10/12 03:43:32;;;;;;;1999.90;999.90;;;;;;;;;;5012336;28;20195;-68
2023/10/12 03:46:26;;;;;;;1999.90;999.90;;;;;;;;;;5020575;28;20226;-68
2023/10/12 03:49:31;;;;;;;1999.90;999.90;;;;;;;;;;5015510;28;20588;-68
2023/10/12 03:52:18;;;;;;;1999.90;999.90;;;;;;;;;;5026137;28;20887;-70
2023/10/12 03:58:06;;;;;;;1999.90;999.90;;;;;;;;;;5013876;28;20239;-68
2023/10/12 04:01:06;;;;;;;1999.90;999.90;;;;;;;;;;5026055;28;20213;-68
2023/10/12 04:03:58;;;;;;;1999.90;999.90;;;;;;;;;;5030139;28;20293;-69
2023/10/12 04:07:05;;;;;;;1999.90;999.90;;;;;;;;;;5023769;28;20326;-68
2023/10/12 04:09:52;;;;;;;1999.90;999.90;;;;;;;;;;5019690;28;20329;-68
2023/10/12 04:12:49;;;;;;;1999.90;999.90;;;;;;;;;;4994774;28;20591;-68
2023/10/12 04:15:36;;;;;;;1999.90;999.90;;;;;;;;;;5015863;28;20313;-70
2023/10/12 04:18:27;;;;;;;1999.90;999.90;;;;;;;;;;5011840;28;20614;-70
2023/10/12 04:21:15;;;;;;;1999.90;999.90;;;;;;;;;;5025729;28;20297;-69
2023/10/12 04:27:23;;;;;;;1999.90;999.90;;;;;;;;;;5018652;28;20211;-69
2023/10/12 04:30:30;;;;;;;1999.90;999.90;;;;;;;;;;5021294;28;20709;-69
2023/10/12 04:33:17;;;;;;;1999.90;999.90;;;;;;;;;;5017199;28;20223;-70
2023/10/12 04:39:15;;;;;;;1999.90;999.90;;;;;;;;;;5008472;28;20229;-70
2023/10/12 04:42:11;;;;;;;1999.90;999.90;;;;;;;;;;5013088;28;20719;-70
2023/10/12 04:45:22;;;;;;;1999.90;999.90;;;;;;;;;;5033174;28;20218;-68
2023/10/12 04:48:18;;;;;;;1999.90;999.90;;;;;;;;;;5019064;28;20592;-67
2023/10/12 04:51:07;;;;;;;1999.90;999.90;;;;;;;;;;5014100;28;20218;-69
2023/10/12 04:53:57;;;;;;;1999.90;999.90;;;;;;;;;;5013628;28;20195;-68
2023/10/12 04:56:56;;;;;;;1999.90;999.90;;;;;;;;;;5013399;28;20199;-68
2023/10/12 04:59:50;;;;;;;1999.90;999.90;;;;;;;;;;5030028;28;20221;-69
2023/10/12 05:02:53;;;;;;;1999.90;999.90;;;;;;;;;;5033310;28;20693;-69
2023/10/12 05:08:40;;;;;;;1999.90;999.90;;;;;;;;;;5031571;28;20414;-69
2023/10/12 05:11:27;;;;;;;1999.90;999.90;;;;;;;;;;5033172;28;20245;-69
2023/10/12 05:14:15;;;;;;;1999.90;999.90;;;;;;;;;;5032978;28;20330;-69
2023/10/12 05:17:00;;;;;;;1999.90;999.90;;;;;;;;;;5032773;28;20210;-70
2023/10/12 05:19:44;;;;;;;1999.90;999.90;;;;;;;;;;5032788;28;20740;-69
2023/10/12 05:22:31;;;;;;;1999.90;999.90;;;;;;;;;;5032715;28;20213;-67
2023/10/12 05:25:16;;;;;;;1999.90;999.90;;;;;;;;;;5032477;28;20225;-69
2023/10/12 05:28:13;;;;;;;1999.90;999.90;;;;;;;;;;5032778;28;20205;-69
2023/10/12 05:31:09;;;;;;;1999.90;999.90;;;;;;;;;;5032408;28;20862;-69
2023/10/12 05:36:57;;;;;;;1999.90;999.90;;;;;;;;;;5032302;28;20240;-70
2023/10/12 05:39:47;;;;;;;1999.90;999.90;;;;;;;;;;5032544;28;20712;-69
2023/10/12 05:42:33;;;;;;;1999.90;999.90;;;;;;;;;;5032349;28;20682;-69
2023/10/12 05:45:21;;;;;;;1999.90;999.90;;;;;;;;;;5032395;28;20340;-70
2023/10/12 05:48:08;;;;;;;1999.90;999.90;;;;;;;;;;5032253;28;20210;-69
2023/10/12 05:50:53;;;;;;;1999.90;999.90;;;;;;;;;;5032315;28;20198;-69
2023/10/12 05:53:39;;;;;;;1999.90;999.90;;;;;;;;;;5032017;28;20206;-69
2023/10/12 05:56:25;;;;;;;1999.90;999.90;;;;;;;;;;5032111;28;20206;-69
2023/10/12 05:59:13;;;;;;;1999.90;999.90;;;;;;;;;;5031372;28;20764;-69
2023/10/12 06:02:01;;;;;;;1999.90;999.90;;;;;;;;;;5032186;28;20213;-68
2023/10/12 06:04:47;;;;;;;1999.90;999.90;;;;;;;;;;5032037;28;20202;-69
2023/10/12 06:07:32;;;;;;;1999.90;999.90;;;;;;;;;;5031976;28;20244;-69
2023/10/12 06:10:16;;;;;;;1999.90;999.90;;;;;;;;;;5026346;28;20730;-69
2023/10/12 06:13:05;;;;;;;1999.90;999.90;;;;;;;;;;5018887;28;20218;-69
2023/10/12 06:15:53;;;;;;;1999.90;999.90;;;;;;;;;;5013748;28;20292;-69
2023/10/12 06:18:38;;;;;;;1999.90;999.90;;;;;;;;;;5011229;28;20225;-69
2023/10/12 06:21:24;;;;;;;1999.90;999.90;;;;;;;;;;5001290;28;20207;-69
2023/10/12 06:24:11;;;;;;;1999.90;999.90;;;;;;;;;;5023676;28;20690;-69
2023/10/12 06:26:56;;;;;;;1999.90;999.90;;;;;;;;;;5023070;28;20218;-69
2023/10/12 06:29:42;;;;;;;1999.90;999.90;;;;;;;;;;5011786;28;20354;-69
2023/10/12 06:32:31;;;;;;;1999.90;999.90;;;;;;;;;;5009675;28;20302;-69
2023/10/12 06:35:25;;;;;;;1999.90;999.90;;;;;;;;;;5009020;28;20206;-69
2023/10/12 06:38:22;;;;;;;1999.90;999.90;;;;;;;;;;5011671;28;20218;-68
2023/10/12 06:44:25;;;;;;;1999.90;999.90;;;;;;;;;;5014869;28;20221;-68
2023/10/12 06:47:41;;;;;;;1999.90;999.90;;;;;;;;;;5010898;28;20237;-68
2023/10/12 06:50:26;;;;;;;1999.90;999.90;;;;;;;;;;5017797;28;20356;-68
2023/10/12 06:53:11;;;;;;;1999.90;999.90;;;;;;;;;;5011818;28;20577;-68
2023/10/12 06:55:58;;;;;;;1999.90;999.90;;;;;;;;;;5011830;28;20234;-68
2023/10/12 06:58:43;;;;;;;1999.90;999.90;;;;;;;;;;5011375;28;20229;-68
2023/10/12 07:01:28;;;;;;;1999.90;999.90;;;;;;;;;;5019546;28;20261;-69
2023/10/12 07:04:15;;;;;;;1999.90;999.90;;;;;;;;;;5011574;28;20214;-69
2023/10/12 07:07:00;;;;;;;1999.90;999.90;;;;;;;;;;5013321;28;20640;-70
2023/10/12 07:09:46;;;;;;;1999.90;999.90;;;;;;;;;;5011581;28;20309;-69
2023/10/12 07:12:33;;;;;;;1999.90;999.90;;;;;;;;;;5010707;28;20337;-69
2023/10/12 07:15:22;;;;;;;1999.90;999.90;;;;;;;;;;5010064;28;20213;-68
2023/10/12 07:18:14;;;;;;;1999.90;999.90;;;;;;;;;;5007063;28;20309;-69
2023/10/12 07:21:05;;;;;;;1999.90;999.90;;;;;;;;;;5011509;28;20289;-69
2023/10/12 07:23:52;;;;;;;1999.90;999.90;;;;;;;;;;5015290;28;20746;-68
2023/10/12 07:26:39;;;;;;;1999.90;999.90;;;;;;;;;;5014603;28;20226;-69
2023/10/12 07:29:35;;;;;;;1999.90;999.90;;;;;;;;;;5014617;28;20238;-68
2023/10/12 07:32:31;;;;;;;1999.90;999.90;;;;;;;;;;5015523;28;20286;-69
2023/10/12 07:35:31;;;;;;;1999.90;999.90;;;;;;;;;;5022032;28;20228;-68
2023/10/12 07:38:28;;;;;;;1999.90;999.90;;;;;;;;;;5009538;28;20301;-69
2023/10/12 07:41:13;;;;;;;1999.90;999.90;;;;;;;;;;5022805;28;20285;-68
2023/10/12 07:43:58;;;;;;;1999.90;999.90;;;;;;;;;;5016746;28;20338;-67
2023/10/12 07:46:43;;;;;;;1999.90;999.90;;;;;;;;;;5017991;28;20299;-67
2023/10/12 07:49:37;;;;;;;1999.90;999.90;;;;;;;;;;5017380;28;20234;-67
2023/10/12 07:52:38;;;;;;;1999.90;999.90;;;;;;;;;;5016347;28;20779;-68
2023/10/12 07:55:28;;;;;;;1999.90;999.90;;;;;;;;;;5027094;28;20717;-69
2023/10/12 07:58:18;;;;;;;1999.90;999.90;;;;;;;;;;5023296;28;20211;-69
2023/10/12 08:04:08;;;;;;;1999.90;999.90;;;;;;;;;;5020589;28;20286;-69
2023/10/12 08:06:53;;;;;;;1999.90;999.90;;;;;;;;;;5018840;28;20253;-67
2023/10/12 08:09:47;;;;;;;1999.90;999.90;;;;;;;;;;5023322;28;20307;-68
2023/10/12 08:12:36;;;;;;;1999.90;999.90;;;;;;;;;;5022178;28;20210;-68
2023/10/12 08:15:49;;;;;;;1999.90;999.90;;;;;;;;;;5016825;28;20219;-67
2023/10/12 08:21:32;;;;;;;1999.90;999.90;;;;;;;;;;5019244;28;20214;-67
2023/10/12 08:24:23;;;;;;;1999.90;999.90;;;;;;;;;;5027786;28;20260;-67
2023/10/12 08:27:11;;;;;;;1999.90;999.90;;;;;;;;;;5018255;28;20233;-68
2023/10/12 08:30:11;;;;;;;1999.90;999.90;;;;;;;;;;5016706;28;20237;-68
2023/10/12 08:33:08;;;;;;;1999.90;999.90;;;;;;;;;;5017556;28;20336;-68
2023/10/12 08:52:19;;;;;;;1999.90;999.90;;;;;;;;;;5110875;28;20264;-67
2023/10/12 08:55:07;;;;;;;1999.90;999.90;;;;;;;;;;5105547;28;20211;-67
2023/10/12 08:58:01;;;;;;;1999.90;999.90;;;;;;;;;;5110379;28;20711;-67
2023/10/12 09:01:07;;;;;;;1999.90;999.90;;;;;;;;;;5107799;28;20207;-68
2023/10/12 09:04:00;;;;;;;1999.90;999.90;;;;;;;;;;5105624;28;20202;-67
2023/10/12 09:06:56;;;;;;;1999.90;999.90;;;;;;;;;;5114179;28;20579;-67
2023/10/12 09:09:49;;;;;;;1999.90;999.90;;;;;;;;;;5112519;28;20249;-67
2023/10/12 09:12:39;;;;;;;1999.90;999.90;;;;;;;;;;5110661;28;20289;-68
2023/10/12 09:15:30;;;;;;;1999.90;999.90;;;;;;;;;;5115412;28;20223;-67
2023/10/12 09:18:16;;;;;;;1999.90;999.90;;;;;;;;;;5109709;28;20352;-67
2023/10/12 09:21:16;;;;;;;1999.90;999.90;;;;;;;;;;5109038;28;20202;-67
2023/10/12 09:24:07;;;;;;;1999.90;999.90;;;;;;;;;;5116935;28;20942;-68
2023/10/12 09:26:57;;;;;;;1999.90;999.90;;;;;;;;;;5109147;28;20207;-68
2023/10/12 09:29:57;;;;;;;1999.90;999.90;;;;;;;;;;5113260;28;20238;-67
2023/10/12 09:32:56;;;;;;;1999.90;999.90;;;;;;;;;;5114356;28;20722;-68
2023/10/12 09:35:41;;;;;;;1999.90;999.90;;;;;;;;;;5109859;28;20336;-68
2023/10/12 09:38:29;;;;;;;1999.90;999.90;;;;;;;;;;5119526;28;20222;-66
2023/10/12 09:41:17;;;;;;;1999.90;999.90;;;;;;;;;;5107774;28;20211;-67
2023/10/12 09:44:04;;;;;;;1999.90;999.90;;;;;;;;;;5112298;28;20219;-68
2023/10/12 09:46:49;;;;;;;1999.90;999.90;;;;;;;;;;5117038;28;20207;-67
2023/10/12 09:49:37;;;;;;;1999.90;999.90;;;;;;;;;;5099607;28;20330;-67
2023/10/12 09:52:23;;;;;;;1999.90;999.90;;;;;;;;;;5095365;28;20219;-66
2023/10/12 09:55:14;;;;;;;1999.90;999.90;;;;;;;;;;5093583;28;20208;-67
2023/10/12 09:58:22;;;;;;;1999.90;999.90;;;;;;;;;;5100987;28;20234;-67
2023/10/12 10:01:15;;;;;;;1999.90;999.90;;;;;;;;;;5104297;28;20254;-66
2023/10/12 10:04:27;;;;;;;1999.90;999.90;;;;;;;;;;5091326;28;20910;-67
2023/10/12 10:07:15;;;;;;;1999.90;999.90;;;;;;;;;;5093857;28;20212;-66
2023/10/12 10:10:05;;;;;;;1999.90;999.90;;;;;;;;;;5091619;28;20227;-68
2023/10/12 10:12:50;;;;;;;1999.90;999.90;;;;;;;;;;5097312;28;20350;-67
2023/10/12 10:15:55;;;;;;;1999.90;999.90;;;;;;;;;;5086215;28;20213;-68
2023/10/12 10:18:45;;;;;;;1999.90;999.90;;;;;;;;;;5102667;28;20324;-68
2023/10/12 10:21:31;;;;;;;1999.90;999.90;;;;;;;;;;5093346;28;20212;-69
2023/10/12 10:24:19;;;;;;;1999.90;999.90;;;;;;;;;;5100475;28;20226;-68
2023/10/12 10:27:11;;;;;;;1999.90;999.90;;;;;;;;;;5102231;28;20437;-68
2023/10/12 10:30:00;;;;;;;1999.90;999.90;;;;;;;;;;5100059;28;20231;-67
2023/10/12 10:33:06;;;;;;;1999.90;999.90;;;;;;;;;;5097783;28;20226;-66
2023/10/12 10:35:56;;;;;;;1999.90;999.90;;;;;;;;;;5095088;28;20617;-68
2023/10/12 10:38:53;;;;;;;1999.90;999.90;;;;;;;;;;5097609;28;20241;-67
2023/10/12 10:41:46;;;;;;;1999.90;999.90;;;;;;;;;;5096131;28;20219;-67
2023/10/12 10:44:36;;;;;;;1999.90;999.90;;;;;;;;;;5107478;28;20196;-68
2023/10/12 10:47:27;;;;;;;1999.90;999.90;;;;;;;;;;5102119;28;20211;-67
2023/10/12 10:50:15;;;;;;;1999.90;999.90;;;;;;;;;;5101207;28;20596;-67
2023/10/12 10:53:00;;;;;;;1999.90;999.90;;;;;;;;;;5096077;28;20202;-67
2023/10/12 10:55:47;;;;;;;1999.90;999.90;;;;;;;;;;5094020;28;20215;-67
2023/10/12 10:58:31;;;;;;;1999.90;999.90;;;;;;;;;;5096924;28;20235;-67
2023/10/12 11:01:20;;;;;;;1999.90;999.90;;;;;;;;;;5116809;28;20280;-69
2023/10/12 11:04:09;;;;;;;1999.90;999.90;;;;;;;;;;5098820;28;20258;-68
2023/10/12 11:06:55;;;;;;;1999.90;999.90;;;;;;;;;;5097062;28;20571;-68
2023/10/12 11:12:42;;;;;;;1999.90;999.90;;;;;;;;;;5081453;28;20655;-68
2023/10/12 11:15:26;;;;;;;1999.90;999.90;;;;;;;;;;5099599;28;20199;-67
2023/10/12 11:18:17;;;;;;;1999.90;999.90;;;;;;;;;;5092818;28;20423;-68
2023/10/12 11:21:04;;;;;;;1999.90;999.90;;;;;;;;;;5099797;28;20787;-67
2023/10/12 11:23:51;;;;;;;1999.90;999.90;;;;;;;;;;5092405;28;20196;-69
2023/10/12 11:26:51;;;;;;;1999.90;999.90;;;;;;;;;;5105089;28;20238;-69
2023/10/12 11:29:47;;;;;;;1999.90;999.90;;;;;;;;;;5098529;28;20309;-68
2023/10/12 11:32:33;;;;;;;1999.90;999.90;;;;;;;;;;5098599;28;20211;-69
2023/10/12 11:35:18;;;;;;;1999.90;999.90;;;;;;;;;;5093216;28;20212;-68
2023/10/12 11:38:03;;;;;;;1999.90;999.90;;;;;;;;;;5103558;28;20208;-69
2023/10/12 11:40:53;;;;;;;1999.90;999.90;;;;;;;;;;5095100;28;20440;-69
2023/10/12 11:43:45;;;;;;;1999.90;999.90;;;;;;;;;;5098829;28;20239;-68
2023/10/12 11:46:40;;;;;;;1999.90;999.90;;;;;;;;;;5097272;28;20229;-69
2023/10/12 11:49:25;;;;;;;1999.90;999.90;;;;;;;;;;5097848;28;20215;-69
2023/10/12 11:52:15;;;;;;;1999.90;999.90;;;;;;;;;;5094389;28;20729;-67
2023/10/12 11:55:01;;;;;;;1999.90;999.90;;;;;;;;;;5094821;28;20318;-70
2023/10/12 11:57:49;;;;;;;1999.90;999.90;;;;;;;;;;5099685;28;20235;-68
2023/10/12 12:00:37;;;;;;;1999.90;999.90;;;;;;;;;;5096164;28;20337;-69
2023/10/12 12:03:22;;;;;;;1999.90;999.90;;;;;;;;;;5093412;28;20208;-69
2023/10/12 12:06:18;;;;;;;1999.90;999.90;;;;;;;;;;5099297;28;20207;-69
2023/10/12 12:09:07;;;;;;;1999.90;999.90;;;;;;;;;;5095132;28;20584;-69
2023/10/12 12:11:53;;;;;;;1999.90;999.90;;;;;;;;;;5087615;28;20208;-69
2023/10/12 12:14:46;;;;;;;1999.90;999.90;;;;;;;;;;5104221;28;20257;-68
2023/10/12 12:17:31;;;;;;;1999.90;999.90;;;;;;;;;;5098202;28;20681;-68
2023/10/12 12:20:21;;;;;;;1999.90;999.90;;;;;;;;;;5093608;28;20599;-69
2023/10/12 12:23:05;;;;;;;1999.90;999.90;;;;;;;;;;5098257;28;20252;-69
2023/10/12 12:25:51;;;;;;;1999.90;999.90;;;;;;;;;;5093054;28;20582;-69
2023/10/12 12:28:43;;;;;;;1999.90;999.90;;;;;;;;;;5101745;28;20308;-69
2023/10/12 12:31:32;;;;;;;1999.90;999.90;;;;;;;;;;5097959;28;20543;-69
2023/10/12 12:34:38;;;;;;;1999.90;999.90;;;;;;;;;;5092858;28;20208;-69
2023/10/12 12:37:23;;;;;;;1999.90;999.90;;;;;;;;;;5095888;28;20199;-68
2023/10/12 12:40:27;;;;;;;1999.90;999.90;;;;;;;;;;5096750;28;20231;-68
2023/10/12 12:43:12;;;;;;;1999.90;999.90;;;;;;;;;;5095915;28;20215;-69
2023/10/12 12:45:57;;;;;;;1999.90;999.90;;;;;;;;;;5094225;28;20577;-69
2023/10/12 12:48:45;;;;;;;1999.90;999.90;;;;;;;;;;5101027;28;20345;-69
2023/10/12 12:51:30;;;;;;;1999.90;999.90;;;;;;;;;;5105468;28;20218;-68
2023/10/12 12:54:15;;;;;;;1999.90;999.90;;;;;;;;;;5103394;28;20409;-69
2023/10/12 12:57:00;;;;;;;1999.90;999.90;;;;;;;;;;5099227;28;20203;-69
2023/10/12 12:59:45;;;;;;;1999.90;999.90;;;;;;;;;;5093475;28;20259;-69
2023/10/12 13:02:31;;;;;;;1999.90;999.90;;;;;;;;;;5093826;28;20203;-69
2023/10/12 13:05:17;;;;;;;1999.90;999.90;;;;;;;;;;5094688;28;20211;-68
2023/10/12 13:08:07;;;;;;;1999.90;999.90;;;;;;;;;;5094532;28;20207;-68
2023/10/12 13:10:52;;;;;;;1999.90;999.90;;;;;;;;;;5100351;28;20219;-69
2023/10/12 13:13:39;;;;;;;1999.90;999.90;;;;;;;;;;5093438;28;20220;-68
2023/10/12 13:16:24;;;;;;;1999.90;999.90;;;;;;;;;;5095669;28;20203;-68
2023/10/12 13:19:11;;;;;;;1999.90;999.90;;;;;;;;;;5091901;28;20743;-69
2023/10/12 13:21:57;;;;;;;1999.90;999.90;;;;;;;;;;5093101;28;20217;-68
2023/10/12 13:24:42;;;;;;;1999.90;999.90;;;;;;;;;;5097395;28;20200;-68
2023/10/12 13:27:29;;;;;;;1999.90;999.90;;;;;;;;;;5105925;28;20199;-66
2023/10/12 13:30:14;;;;;;;1999.90;999.90;;;;;;;;;;5106151;28;20326;-67
2023/10/12 13:32:59;;;;;;;1999.90;999.90;;;;;;;;;;5092220;28;20219;-67
2023/10/12 13:35:46;;;;;;;1999.90;999.90;;;;;;;;;;5100784;28;20689;-68
2023/10/12 13:38:34;;;;;;;1999.90;999.90;;;;;;;;;;5108173;28;20226;-68
2023/10/12 13:41:20;;;;;;;1999.90;999.90;;;;;;;;;;5095649;28;20229;-67
2023/10/12 13:44:06;;;;;;;1999.90;999.90;;;;;;;;;;5094029;28;20204;-67
2023/10/12 13:46:51;;;;;;;1999.90;999.90;;;;;;;;;;5096580;28;20212;-68
2023/10/12 13:49:37;;;;;;;1999.90;999.90;;;;;;;;;;5102719;28;20226;-66
2023/10/12 13:52:22;;;;;;;1999.90;999.90;;;;;;;;;;5091258;28;20686;-68
2023/10/12 13:55:11;;;;;;;1999.90;999.90;;;;;;;;;;5094767;28;20207;-69
2023/10/12 13:57:57;;;;;;;1999.90;999.90;;;;;;;;;;5105427;28;20211;-68
2023/10/12 14:00:42;;;;;;;1999.90;999.90;;;;;;;;;;5100223;28;20262;-68
2023/10/12 14:03:29;;;;;;;1999.90;999.90;;;;;;;;;;5100732;28;20214;-68
2023/10/12 14:06:13;;;;;;;1999.90;999.90;;;;;;;;;;5098451;28;20330;-68
2023/10/12 14:08:58;;;;;;;1999.90;999.90;;;;;;;;;;5098464;28;21038;-68
2023/10/12 14:11:51;;;;;;;1999.90;999.90;;;;;;;;;;5101471;28;20629;-68
2023/10/12 14:14:36;;;;;;;1999.90;999.90;;;;;;;;;;5096194;28;20263;-68
2023/10/12 14:17:24;;;;;;;1999.90;999.90;;;;;;;;;;5096964;28;20227;-68
2023/10/12 14:20:09;;;;;;;1999.90;999.90;;;;;;;;;;5098271;28;20312;-68
2023/10/12 14:22:57;;;;;;;1999.90;999.90;;;;;;;;;;5099892;28;20695;-68
2023/10/12 14:25:43;;;;;;;1999.90;999.90;;;;;;;;;;5099011;28;20686;-69
2023/10/12 14:28:34;;;;;;;1999.90;999.90;;;;;;;;;;5092412;28;20203;-68
2023/10/12 14:31:20;;;;;;;1999.90;999.90;;;;;;;;;;5100267;28;20208;-68
2023/10/12 14:34:08;;;;;;;1999.90;999.90;;;;;;;;;;5098941;28;20952;-67
2023/10/12 14:36:53;;;;;;;1999.90;999.90;;;;;;;;;;5092731;28;20216;-68
2023/10/12 14:39:37;;;;;;;1999.90;999.90;;;;;;;;;;5098023;28;20247;-68
2023/10/12 14:42:23;;;;;;;1999.90;999.90;;;;;;;;;;5099335;28;20200;-68
2023/10/12 14:45:10;;;;;;;1999.90;999.90;;;;;;;;;;5093188;28;20211;-68
2023/10/12 14:47:56;;;;;;;1999.90;999.90;;;;;;;;;;5097249;28;20266;-69
2023/10/12 14:50:43;;;;;;;1999.90;999.90;;;;;;;;;;5096287;28;20212;-69
2023/10/12 14:53:29;;;;;;;1999.90;999.90;;;;;;;;;;5098693;28;20338;-67
2023/10/12 14:56:14;;;;;;;1999.90;999.90;;;;;;;;;;5092862;28;20223;-68
2023/10/12 14:59:00;;;;;;;1999.90;999.90;;;;;;;;;;5097690;28;20417;-68
2023/10/12 15:01:48;;;;;;;1999.90;999.90;;;;;;;;;;5101692;28;20215;-69
2023/10/12 15:04:33;;;;;;;1999.90;999.90;;;;;;;;;;5103331;28;20309;-69
2023/10/12 15:07:18;;;;;;;1999.90;999.90;;;;;;;;;;5093375;28;20692;-67
2023/10/12 15:10:05;;;;;;;1999.90;999.90;;;;;;;;;;5092305;28;20223;-68
2023/10/12 15:12:50;;;;;;;1999.90;999.90;;;;;;;;;;5100607;28;20578;-69
2023/10/12 15:15:35;;;;;;;1999.90;999.90;;;;;;;;;;5100207;28;20232;-68
2023/10/12 15:18:23;;;;;;;1999.90;999.90;;;;;;;;;;5094014;28;20231;-68
2023/10/12 15:21:10;;;;;;;1999.90;999.90;;;;;;;;;;5098699;28;20207;-68
2023/10/12 15:23:54;;;;;;;1999.90;999.90;;;;;;;;;;5094286;28;20763;-68
2023/10/12 15:26:39;;;;;;;1999.90;999.90;;;;;;;;;;5093565;28;20431;-69
2023/10/12 15:29:26;;;;;;;1999.90;999.90;;;;;;;;;;5099933;28;20616;-68
2023/10/12 15:32:11;;;;;;;1999.90;999.90;;;;;;;;;;5096540;28;20187;-68
2023/10/12 15:34:57;;;;;;;1999.90;999.90;;;;;;;;;;5095049;28;20346;-68
2023/10/12 15:37:46;;;;;;;1999.90;999.90;;;;;;;;;;5093080;28;20208;-68
2023/10/12 15:40:32;;;;;;;1999.90;999.90;;;;;;;;;;5098183;28;20300;-68
2023/10/12 15:43:17;;;;;;;1999.90;999.90;;;;;;;;;;5100307;28;20207;-69
2023/10/12 15:46:08;;;;;;;1999.90;999.90;;;;;;;;;;5093806;28;20585;-68
2023/10/12 15:48:54;;;;;;;1999.90;999.90;;;;;;;;;;5095586;28;20239;-68
2023/10/12 15:51:40;;;;;;;1999.90;999.90;;;;;;;;;;5105424;28;20285;-70
2023/10/12 15:54:26;;;;;;;1999.90;999.90;;;;;;;;;;5098382;28;20574;-69
2023/10/12 15:57:11;;;;;;;1999.90;999.90;;;;;;;;;;5091981;28;20208;-68
2023/10/12 15:59:56;;;;;;;1999.90;999.90;;;;;;;;;;5092903;28;20227;-68
2023/10/12 16:02:41;;;;;;;1999.90;999.90;;;;;;;;;;5096228;28;20711;-68
2023/10/12 16:05:28;;;;;;;1999.90;999.90;;;;;;;;;;5091933;28;20386;-68
2023/10/12 16:08:15;;;;;;;1999.90;999.90;;;;;;;;;;5090405;28;20669;-68
2023/10/12 16:11:02;;;;;;;1999.90;999.90;;;;;;;;;;5095445;28;20204;-69
2023/10/12 16:13:47;;;;;;;1999.90;999.90;;;;;;;;;;5099012;28;20341;-67
2023/10/12 16:16:32;;;;;;;1999.90;999.90;;;;;;;;;;5091392;28;20305;-67
2023/10/12 16:19:18;;;;;;;1999.90;999.90;;;;;;;;;;5104899;28;20774;-67
2023/10/12 16:22:06;;;;;;;1999.90;999.90;;;;;;;;;;5095164;28;20199;-67
2023/10/12 16:24:52;;;;;;;1999.90;999.90;;;;;;;;;;5101500;28;20409;-68
2023/10/12 16:27:38;;;;;;;1999.90;999.90;;;;;;;;;;5103358;28;20210;-67
2023/10/12 16:30:23;;;;;;;1999.90;999.90;;;;;;;;;;5095161;28;20211;-68
2023/10/12 16:33:10;;;;;;;1999.90;999.90;;;;;;;;;;5090520;28;20208;-68
2023/10/12 16:35:55;;;;;;;1999.90;999.90;;;;;;;;;;5091353;28;20594;-67
2023/10/12 16:38:40;;;;;;;1999.90;999.90;;;;;;;;;;5093411;28;20350;-67
2023/10/12 16:41:27;;;;;;;1999.90;999.90;;;;;;;;;;5105430;28;20211;-66
2023/10/12 16:44:12;;;;;;;1999.90;999.90;;;;;;;;;;5098567;28;20762;-68
2023/10/12 16:46:56;;;;;;;1999.90;999.90;;;;;;;;;;5094317;28;20208;-67
2023/10/12 16:49:41;;;;;;;1999.90;999.90;;;;;;;;;;5098622;28;20224;-67